sensor_id;sensor_type;location;lat;lon;timestamp;pressure;altitude;pressure_sealevel;temperature;humidity
15308;BME280;7755;52.208;6.964;2024-03-07T00:00:43;102226.28;;;5.26;100.00
15308;BME280;7755;52.208;6.964;2024-03-07T00:05:23;102228.63;;;5.20;100.00
15308;BME280;7755;52.208;6.964;2024-03-07T00:10:01;102245.31;;;5.16;100.00
15308;BME280;7755;52.208;6.964;2024-03-07T00:14:41;102235.19;;;5.10;100.00
15308;BME280;7755;52.208;6.964;2024-03-07T00:19:20;102239.41;;;5.04;100.00
15308;BME280;7755;52.208;6.964;2024-03-07T00:23:59;102259.78;;;4.99;100.00
15308;BME280;7755;52.208;6.964;2024-03-07T00:28:31;102247.97;;;4.91;100.00
15308;BME280;7755;52.208;6.964;2024-03-07T00:33:12;102245.09;;;4.85;100.00
15308;BME280;7755;52.208;6.964;2024-03-07T00:38:11;102237.66;;;4.79;100.00
15308;BME280;7755;52.208;6.964;2024-03-07T00:42:49;102256.03;;;4.75;100.00
15308;BME280;7755;52.208;6.964;2024-03-07T00:47:22;102252.97;;;4.70;100.00
15308;BME280;7755;52.208;6.964;2024-03-07T00:52:03;102249.06;;;4.64;100.00
15308;BME280;7755;52.208;6.964;2024-03-07T00:56:42;102249.41;;;4.61;100.00
15308;BME280;7755;52.208;6.964;2024-03-07T01:01:21;102248.22;;;4.56;100.00
15308;BME280;7755;52.208;6.964;2024-03-07T01:06:00;102259.47;;;4.51;100.00
15308;BME280;7755;52.208;6.964;2024-03-07T01:10:41;102249.16;;;4.47;100.00
15308;BME280;7755;52.208;6.964;2024-03-07T01:15:20;102248.50;;;4.45;100.00
15308;BME280;7755;52.208;6.964;2024-03-07T01:19:58;102244.47;;;4.41;100.00
15308;BME280;7755;52.208;6.964;2024-03-07T01:24:37;102247.63;;;4.36;100.00
15308;BME280;7755;52.208;6.964;2024-03-07T01:29:18;102243.56;;;4.32;100.00
15308;BME280;7755;52.208;6.964;2024-03-07T01:33:57;102242.03;;;4.29;100.00
15308;BME280;7755;52.208;6.964;2024-03-07T01:38:36;102237.13;;;4.25;100.00
15308;BME280;7755;52.208;6.964;2024-03-07T01:43:14;102234.59;;;4.23;100.00
15308;BME280;7755;52.208;6.964;2024-03-07T01:47:55;102237.31;;;4.23;100.00
15308;BME280;7755;52.208;6.964;2024-03-07T01:52:35;102233.22;;;4.19;100.00
15308;BME280;7755;52.208;6.964;2024-03-07T01:57:14;102230.19;;;4.14;100.00
15308;BME280;7755;52.208;6.964;2024-03-07T02:01:55;102232.19;;;4.12;100.00
15308;BME280;7755;52.208;6.964;2024-03-07T02:06:36;102230.84;;;4.08;100.00
15308;BME280;7755;52.208;6.964;2024-03-07T02:11:13;102231.31;;;4.03;100.00
15308;BME280;7755;52.208;6.964;2024-03-07T02:15:53;102227.25;;;3.99;100.00
15308;BME280;7755;52.208;6.964;2024-03-07T02:20:31;102226.94;;;4.02;100.00
15308;BME280;7755;52.208;6.964;2024-03-07T02:25:11;102221.00;;;3.99;100.00
15308;BME280;7755;52.208;6.964;2024-03-07T02:29:49;102216.66;;;3.98;100.00
15308;BME280;7755;52.208;6.964;2024-03-07T02:34:28;102221.66;;;3.93;100.00
15308;BME280;7755;52.208;6.964;2024-03-07T02:39:05;102220.81;;;3.92;100.00
15308;BME280;7755;52.208;6.964;2024-03-07T02:43:47;102208.06;;;3.94;100.00
15308;BME280;7755;52.208;6.964;2024-03-07T02:48:26;102214.47;;;3.93;100.00
15308;BME280;7755;52.208;6.964;2024-03-07T02:53:05;102211.06;;;3.91;100.00
15308;BME280;7755;52.208;6.964;2024-03-07T02:57:42;102203.16;;;3.90;100.00
15308;BME280;7755;52.208;6.964;2024-03-07T03:02:23;102206.00;;;3.88;100.00
15308;BME280;7755;52.208;6.964;2024-03-07T03:07:01;102200.94;;;3.85;100.00
15308;BME280;7755;52.208;6.964;2024-03-07T03:11:39;102204.78;;;3.82;100.00
15308;BME280;7755;52.208;6.964;2024-03-07T03:16:18;102193.50;;;3.79;100.00
15308;BME280;7755;52.208;6.964;2024-03-07T03:21:11;102201.22;;;3.74;100.00
15308;BME280;7755;52.208;6.964;2024-03-07T03:25:50;102197.16;;;3.70;100.00
15308;BME280;7755;52.208;6.964;2024-03-07T03:30:28;102190.56;;;3.64;100.00
15308;BME280;7755;52.208;6.964;2024-03-07T03:35:07;102199.97;;;3.60;100.00
15308;BME280;7755;52.208;6.964;2024-03-07T03:39:48;102202.09;;;3.56;100.00
15308;BME280;7755;52.208;6.964;2024-03-07T03:44:28;102207.81;;;3.53;100.00
15308;BME280;7755;52.208;6.964;2024-03-07T03:49:06;102203.22;;;3.46;100.00
15308;BME280;7755;52.208;6.964;2024-03-07T03:53:44;102203.13;;;3.38;100.00
15308;BME280;7755;52.208;6.964;2024-03-07T03:58:25;102202.78;;;3.33;100.00
15308;BME280;7755;52.208;6.964;2024-03-07T04:03:05;102196.88;;;3.29;100.00
15308;BME280;7755;52.208;6.964;2024-03-07T04:07:42;102193.88;;;3.32;100.00
15308;BME280;7755;52.208;6.964;2024-03-07T04:12:20;102192.66;;;3.26;100.00
15308;BME280;7755;52.208;6.964;2024-03-07T04:17:01;102182.19;;;3.23;100.00
15308;BME280;7755;52.208;6.964;2024-03-07T04:21:41;102186.72;;;3.23;100.00
15308;BME280;7755;52.208;6.964;2024-03-07T04:26:18;102189.59;;;3.21;100.00
15308;BME280;7755;52.208;6.964;2024-03-07T04:30:56;102187.19;;;3.18;100.00
15308;BME280;7755;52.208;6.964;2024-03-07T04:35:37;102188.81;;;3.11;100.00
15308;BME280;7755;52.208;6.964;2024-03-07T04:40:16;102183.91;;;3.07;100.00
15308;BME280;7755;52.208;6.964;2024-03-07T04:44:53;102182.00;;;2.99;100.00
15308;BME280;7755;52.208;6.964;2024-03-07T04:49:34;102188.50;;;2.96;100.00
15308;BME280;7755;52.208;6.964;2024-03-07T04:54:15;102172.03;;;2.91;100.00
15308;BME280;7755;52.208;6.964;2024-03-07T04:58:53;102181.91;;;2.91;100.00
15308;BME280;7755;52.208;6.964;2024-03-07T05:03:31;102174.00;;;2.89;100.00
15308;BME280;7755;52.208;6.964;2024-03-07T05:08:11;102173.78;;;2.83;100.00
15308;BME280;7755;52.208;6.964;2024-03-07T05:12:52;102173.09;;;2.81;100.00
15308;BME280;7755;52.208;6.964;2024-03-07T05:17:30;102182.44;;;2.77;100.00
15308;BME280;7755;52.208;6.964;2024-03-07T05:22:12;102176.56;;;2.73;100.00
15308;BME280;7755;52.208;6.964;2024-03-07T05:26:54;102180.53;;;2.69;100.00
15308;BME280;7755;52.208;6.964;2024-03-07T05:31:36;102177.00;;;2.68;100.00
15308;BME280;7755;52.208;6.964;2024-03-07T05:36:08;102180.38;;;2.70;100.00
15308;BME280;7755;52.208;6.964;2024-03-07T05:40:44;102183.53;;;2.66;100.00
15308;BME280;7755;52.208;6.964;2024-03-07T05:45:16;102182.81;;;2.64;100.00
15308;BME280;7755;52.208;6.964;2024-03-07T05:49:52;102190.03;;;2.63;100.00
15308;BME280;7755;52.208;6.964;2024-03-07T05:54:33;102183.31;;;2.59;100.00
15308;BME280;7755;52.208;6.964;2024-03-07T05:59:12;102183.59;;;2.56;100.00
15308;BME280;7755;52.208;6.964;2024-03-07T06:03:51;102183.50;;;2.48;100.00
15308;BME280;7755;52.208;6.964;2024-03-07T06:08:31;102188.47;;;2.43;100.00
15308;BME280;7755;52.208;6.964;2024-03-07T06:13:12;102195.00;;;2.40;100.00
15308;BME280;7755;52.208;6.964;2024-03-07T06:17:49;102198.97;;;2.36;100.00
15308;BME280;7755;52.208;6.964;2024-03-07T06:22:28;102198.13;;;2.36;100.00
15308;BME280;7755;52.208;6.964;2024-03-07T06:27:10;102197.75;;;2.31;100.00
15308;BME280;7755;52.208;6.964;2024-03-07T06:31:56;102211.84;;;2.33;100.00
15308;BME280;7755;52.208;6.964;2024-03-07T06:36:35;102214.38;;;2.34;100.00
15308;BME280;7755;52.208;6.964;2024-03-07T06:41:12;102202.81;;;2.34;100.00
15308;BME280;7755;52.208;6.964;2024-03-07T06:45:53;102214.09;;;2.37;100.00
15308;BME280;7755;52.208;6.964;2024-03-07T06:50:31;102209.41;;;2.39;100.00
15308;BME280;7755;52.208;6.964;2024-03-07T06:55:09;102214.34;;;2.44;100.00
15308;BME280;7755;52.208;6.964;2024-03-07T06:59:48;102216.72;;;2.47;100.00
15308;BME280;7755;52.208;6.964;2024-03-07T07:04:29;102218.41;;;2.48;100.00
15308;BME280;7755;52.208;6.964;2024-03-07T07:09:16;102216.81;;;2.55;100.00
15308;BME280;7755;52.208;6.964;2024-03-07T07:13:54;102212.84;;;2.59;100.00
15308;BME280;7755;52.208;6.964;2024-03-07T07:18:34;102212.34;;;2.64;100.00
15308;BME280;7755;52.208;6.964;2024-03-07T07:23:15;102221.81;;;2.68;100.00
15308;BME280;7755;52.208;6.964;2024-03-07T07:27:55;102221.91;;;2.76;100.00
15308;BME280;7755;52.208;6.964;2024-03-07T07:32:34;102218.59;;;2.82;100.00
15308;BME280;7755;52.208;6.964;2024-03-07T07:37:12;102212.47;;;2.90;100.00
15308;BME280;7755;52.208;6.964;2024-03-07T07:41:54;102211.47;;;2.91;100.00
15308;BME280;7755;52.208;6.964;2024-03-07T07:46:32;102210.00;;;2.96;100.00
15308;BME280;7755;52.208;6.964;2024-03-07T07:51:10;102199.03;;;3.08;100.00
15308;BME280;7755;52.208;6.964;2024-03-07T07:55:48;102199.94;;;3.16;100.00
15308;BME280;7755;52.208;6.964;2024-03-07T08:00:30;102203.19;;;3.20;100.00
15308;BME280;7755;52.208;6.964;2024-03-07T08:05:09;102201.94;;;3.32;100.00
15308;BME280;7755;52.208;6.964;2024-03-07T08:09:48;102202.22;;;3.47;100.00
15308;BME280;7755;52.208;6.964;2024-03-07T08:14:27;102195.88;;;3.56;100.00
15308;BME280;7755;52.208;6.964;2024-03-07T08:19:08;102200.16;;;3.67;100.00
15308;BME280;7755;52.208;6.964;2024-03-07T08:23:46;102206.59;;;3.74;100.00
15308;BME280;7755;52.208;6.964;2024-03-07T08:28:26;102200.59;;;3.80;100.00
15308;BME280;7755;52.208;6.964;2024-03-07T08:33:04;102190.25;;;3.93;100.00
15308;BME280;7755;52.208;6.964;2024-03-07T08:37:48;102193.97;;;4.00;100.00
15308;BME280;7755;52.208;6.964;2024-03-07T08:42:26;102206.78;;;4.06;100.00
15308;BME280;7755;52.208;6.964;2024-03-07T08:47:05;102196.03;;;4.06;100.00
15308;BME280;7755;52.208;6.964;2024-03-07T08:51:42;102201.75;;;4.11;100.00
15308;BME280;7755;52.208;6.964;2024-03-07T08:56:25;102195.25;;;4.22;100.00
15308;BME280;7755;52.208;6.964;2024-03-07T09:01:03;102207.22;;;4.28;100.00
15308;BME280;7755;52.208;6.964;2024-03-07T09:05:41;102190.25;;;4.35;100.00
15308;BME280;7755;52.208;6.964;2024-03-07T09:10:21;102192.75;;;4.37;100.00
15308;BME280;7755;52.208;6.964;2024-03-07T09:15:04;102191.78;;;4.46;100.00
15308;BME280;7755;52.208;6.964;2024-03-07T09:19:45;102203.94;;;4.58;100.00
15308;BME280;7755;52.208;6.964;2024-03-07T09:24:18;102194.88;;;4.68;100.00
15308;BME280;7755;52.208;6.964;2024-03-07T09:28:56;102189.00;;;4.80;100.00
15308;BME280;7755;52.208;6.964;2024-03-07T09:33:38;102185.50;;;4.88;100.00
15308;BME280;7755;52.208;6.964;2024-03-07T09:38:17;102184.97;;;4.92;100.00
15308;BME280;7755;52.208;6.964;2024-03-07T09:42:57;102184.31;;;4.99;100.00
15308;BME280;7755;52.208;6.964;2024-03-07T09:47:38;102182.13;;;5.18;100.00
15308;BME280;7755;52.208;6.964;2024-03-07T09:52:21;102179.25;;;5.36;100.00
15308;BME280;7755;52.208;6.964;2024-03-07T09:57:02;102172.34;;;5.42;100.00
15308;BME280;7755;52.208;6.964;2024-03-07T10:01:44;102176.34;;;5.54;100.00
15308;BME280;7755;52.208;6.964;2024-03-07T10:06:23;102179.19;;;5.69;100.00
15308;BME280;7755;52.208;6.964;2024-03-07T10:10:58;102174.13;;;5.74;100.00
15308;BME280;7755;52.208;6.964;2024-03-07T10:15:30;102177.13;;;5.95;100.00
15308;BME280;7755;52.208;6.964;2024-03-07T10:20:11;102176.19;;;6.19;100.00
15308;BME280;7755;52.208;6.964;2024-03-07T10:24:51;102155.97;;;6.46;100.00
15308;BME280;7755;52.208;6.964;2024-03-07T10:29:31;102157.00;;;6.68;100.00
15308;BME280;7755;52.208;6.964;2024-03-07T10:34:09;102157.25;;;6.81;100.00
15308;BME280;7755;52.208;6.964;2024-03-07T10:38:47;102152.44;;;7.15;100.00
15308;BME280;7755;52.208;6.964;2024-03-07T10:43:27;102148.63;;;7.24;100.00
15308;BME280;7755;52.208;6.964;2024-03-07T10:48:13;102150.06;;;7.34;100.00
15308;BME280;7755;52.208;6.964;2024-03-07T10:52:58;102150.47;;;7.46;100.00
15308;BME280;7755;52.208;6.964;2024-03-07T10:57:43;102155.50;;;7.49;100.00
15308;BME280;7755;52.208;6.964;2024-03-07T11:02:33;102146.53;;;7.49;100.00
15308;BME280;7755;52.208;6.964;2024-03-07T11:07:16;102153.53;;;7.43;100.00
15308;BME280;7755;52.208;6.964;2024-03-07T11:11:56;102145.69;;;7.48;100.00
15308;BME280;7755;52.208;6.964;2024-03-07T11:16:36;102138.97;;;7.44;100.00
15308;BME280;7755;52.208;6.964;2024-03-07T11:21:41;102135.50;;;7.35;100.00
15308;BME280;7755;52.208;6.964;2024-03-07T11:26:22;102129.16;;;7.43;100.00
15308;BME280;7755;52.208;6.964;2024-03-07T11:31:12;102127.50;;;7.42;100.00
15308;BME280;7755;52.208;6.964;2024-03-07T11:35:49;102124.25;;;7.47;100.00
15308;BME280;7755;52.208;6.964;2024-03-07T11:40:43;102111.56;;;7.47;100.00
15308;BME280;7755;52.208;6.964;2024-03-07T11:45:24;102110.72;;;7.47;100.00
15308;BME280;7755;52.208;6.964;2024-03-07T11:50:08;102096.53;;;7.59;100.00
15308;BME280;7755;52.208;6.964;2024-03-07T11:54:48;102089.13;;;7.83;100.00
15308;BME280;7755;52.208;6.964;2024-03-07T11:59:34;102086.78;;;7.94;100.00
15308;BME280;7755;52.208;6.964;2024-03-07T12:04:16;102081.06;;;8.04;100.00
15308;BME280;7755;52.208;6.964;2024-03-07T12:08:56;102082.66;;;7.99;100.00
15308;BME280;7755;52.208;6.964;2024-03-07T12:13:28;102076.16;;;7.93;100.00
15308;BME280;7755;52.208;6.964;2024-03-07T12:18:02;102063.81;;;7.90;100.00
15308;BME280;7755;52.208;6.964;2024-03-07T12:22:47;102063.72;;;7.99;100.00
15308;BME280;7755;52.208;6.964;2024-03-07T12:27:25;102061.28;;;8.04;100.00
15308;BME280;7755;52.208;6.964;2024-03-07T12:32:05;102047.28;;;8.00;100.00
15308;BME280;7755;52.208;6.964;2024-03-07T12:36:43;102045.78;;;7.98;100.00
15308;BME280;7755;52.208;6.964;2024-03-07T12:41:27;102042.25;;;7.97;100.00
15308;BME280;7755;52.208;6.964;2024-03-07T12:46:10;102036.53;;;7.92;100.00
15308;BME280;7755;52.208;6.964;2024-03-07T12:50:49;102036.53;;;7.92;100.00
15308;BME280;7755;52.208;6.964;2024-03-07T12:55:27;102034.22;;;7.89;100.00
15308;BME280;7755;52.208;6.964;2024-03-07T13:00:09;102025.72;;;7.92;100.00
15308;BME280;7755;52.208;6.964;2024-03-07T13:04:49;102020.13;;;7.93;100.00
15308;BME280;7755;52.208;6.964;2024-03-07T13:09:27;102013.22;;;8.12;100.00
15308;BME280;7755;52.208;6.964;2024-03-07T13:14:06;101999.78;;;8.62;100.00
15308;BME280;7755;52.208;6.964;2024-03-07T13:18:47;101991.13;;;9.08;100.00
15308;BME280;7755;52.208;6.964;2024-03-07T13:23:25;101988.00;;;9.39;100.00
15308;BME280;7755;52.208;6.964;2024-03-07T13:28:07;101985.41;;;9.65;100.00
15308;BME280;7755;52.208;6.964;2024-03-07T13:32:46;101983.50;;;9.59;100.00
15308;BME280;7755;52.208;6.964;2024-03-07T13:37:27;101976.53;;;9.43;100.00
15308;BME280;7755;52.208;6.964;2024-03-07T13:42:05;101982.41;;;9.53;100.00
15308;BME280;7755;52.208;6.964;2024-03-07T13:46:43;101968.41;;;9.50;100.00
15308;BME280;7755;52.208;6.964;2024-03-07T13:51:23;101962.22;;;9.63;100.00
15308;BME280;7755;52.208;6.964;2024-03-07T13:56:33;101962.38;;;9.61;100.00
15308;BME280;7755;52.208;6.964;2024-03-07T14:01:25;101954.94;;;9.70;100.00
15308;BME280;7755;52.208;6.964;2024-03-07T14:06:13;101953.69;;;9.79;100.00
15308;BME280;7755;52.208;6.964;2024-03-07T14:11:19;101952.56;;;9.60;99.16
15308;BME280;7755;52.208;6.964;2024-03-07T14:16:33;101953.25;;;9.75;99.23
15308;BME280;7755;52.208;6.964;2024-03-07T14:21:44;101934.22;;;9.75;98.94
15308;BME280;7755;52.208;6.964;2024-03-07T14:26:54;101931.09;;;9.72;97.67
15308;BME280;7755;52.208;6.964;2024-03-07T14:31:41;101924.81;;;9.58;95.75
15308;BME280;7755;52.208;6.964;2024-03-07T14:36:33;101914.88;;;9.30;94.67
15308;BME280;7755;52.208;6.964;2024-03-07T14:41:15;101907.88;;;9.01;95.89
15308;BME280;7755;52.208;6.964;2024-03-07T14:45:57;101915.28;;;8.86;95.71
15308;BME280;7755;52.208;6.964;2024-03-07T14:50:37;101917.75;;;8.81;96.85
15308;BME280;7755;52.208;6.964;2024-03-07T14:55:16;101898.34;;;8.78;97.13
15308;BME280;7755;52.208;6.964;2024-03-07T14:59:55;101902.19;;;8.62;96.25
15308;BME280;7755;52.208;6.964;2024-03-07T15:04:59;101899.25;;;8.57;97.70
15308;BME280;7755;52.208;6.964;2024-03-07T15:09:37;101890.34;;;8.69;97.78
15308;BME280;7755;52.208;6.964;2024-03-07T15:14:15;101889.94;;;8.72;96.69
15308;BME280;7755;52.208;6.964;2024-03-07T15:19:01;101891.97;;;8.64;95.87
15308;BME280;7755;52.208;6.964;2024-03-07T15:23:41;101884.59;;;8.51;96.18
15308;BME280;7755;52.208;6.964;2024-03-07T15:28:19;101873.88;;;8.36;97.51
15308;BME280;7755;52.208;6.964;2024-03-07T15:32:58;101869.97;;;8.24;96.73
15308;BME280;7755;52.208;6.964;2024-03-07T15:37:36;101866.13;;;8.12;98.35
15308;BME280;7755;52.208;6.964;2024-03-07T15:42:18;101855.75;;;8.15;99.30
15308;BME280;7755;52.208;6.964;2024-03-07T15:46:56;101856.53;;;8.09;99.93
15308;BME280;7755;52.208;6.964;2024-03-07T15:51:36;101858.97;;;8.04;100.00
15308;BME280;7755;52.208;6.964;2024-03-07T15:56:14;101859.97;;;7.97;100.00
15308;BME280;7755;52.208;6.964;2024-03-07T16:00:56;101857.47;;;7.95;100.00
15308;BME280;7755;52.208;6.964;2024-03-07T16:05:35;101843.44;;;7.91;100.00
15308;BME280;7755;52.208;6.964;2024-03-07T16:10:13;101837.81;;;7.86;100.00
15308;BME280;7755;52.208;6.964;2024-03-07T16:14:52;101835.09;;;7.86;100.00
15308;BME280;7755;52.208;6.964;2024-03-07T16:19:33;101835.09;;;7.86;100.00
15308;BME280;7755;52.208;6.964;2024-03-07T16:24:11;101831.34;;;7.87;100.00
15308;BME280;7755;52.208;6.964;2024-03-07T16:28:49;101827.75;;;7.80;100.00
15308;BME280;7755;52.208;6.964;2024-03-07T16:33:27;101816.94;;;7.80;100.00
15308;BME280;7755;52.208;6.964;2024-03-07T16:38:08;101812.72;;;7.78;100.00
15308;BME280;7755;52.208;6.964;2024-03-07T16:42:47;101813.97;;;7.75;100.00
15308;BME280;7755;52.208;6.964;2024-03-07T16:47:25;101811.13;;;7.62;100.00
15308;BME280;7755;52.208;6.964;2024-03-07T16:52:04;101809.75;;;7.51;100.00
15308;BME280;7755;52.208;6.964;2024-03-07T16:56:39;101815.50;;;7.42;100.00
15308;BME280;7755;52.208;6.964;2024-03-07T17:01:17;101811.75;;;7.21;100.00
15308;BME280;7755;52.208;6.964;2024-03-07T17:05:55;101803.47;;;7.08;100.00
15308;BME280;7755;52.208;6.964;2024-03-07T17:10:39;101807.91;;;6.94;100.00
15308;BME280;7755;52.208;6.964;2024-03-07T17:15:22;101813.78;;;6.83;100.00
15308;BME280;7755;52.208;6.964;2024-03-07T17:20:00;101811.56;;;6.72;100.00
15308;BME280;7755;52.208;6.964;2024-03-07T17:24:39;101821.63;;;6.63;100.00
15308;BME280;7755;52.208;6.964;2024-03-07T17:29:17;101824.81;;;6.52;100.00
15308;BME280;7755;52.208;6.964;2024-03-07T17:33:58;101824.81;;;6.37;100.00
15308;BME280;7755;52.208;6.964;2024-03-07T17:38:36;101823.88;;;6.30;100.00
15308;BME280;7755;52.208;6.964;2024-03-07T17:43:17;101827.66;;;6.21;100.00
15308;BME280;7755;52.208;6.964;2024-03-07T17:47:56;101828.22;;;6.16;100.00
15308;BME280;7755;52.208;6.964;2024-03-07T17:52:38;101826.28;;;6.10;100.00
15308;BME280;7755;52.208;6.964;2024-03-07T17:57:10;101829.84;;;6.02;100.00
15308;BME280;7755;52.208;6.964;2024-03-07T18:01:42;101826.06;;;5.97;100.00
15308;BME280;7755;52.208;6.964;2024-03-07T18:06:20;101817.97;;;5.89;100.00
15308;BME280;7755;52.208;6.964;2024-03-07T18:11:01;101826.53;;;5.78;100.00
15308;BME280;7755;52.208;6.964;2024-03-07T18:15:41;101824.72;;;5.70;100.00
15308;BME280;7755;52.208;6.964;2024-03-07T18:20:20;101820.41;;;5.61;100.00
15308;BME280;7755;52.208;6.964;2024-03-07T18:24:58;101813.03;;;5.55;100.00
15308;BME280;7755;52.208;6.964;2024-03-07T18:29:39;101820.16;;;5.47;100.00
15308;BME280;7755;52.208;6.964;2024-03-07T18:34:17;101816.34;;;5.42;100.00
15308;BME280;7755;52.208;6.964;2024-03-07T18:38:55;101814.66;;;5.41;100.00
15308;BME280;7755;52.208;6.964;2024-03-07T18:43:51;101808.13;;;5.35;100.00
15308;BME280;7755;52.208;6.964;2024-03-07T18:48:32;101817.09;;;5.28;100.00
15308;BME280;7755;52.208;6.964;2024-03-07T18:53:11;101810.22;;;5.25;100.00
15308;BME280;7755;52.208;6.964;2024-03-07T18:57:50;101807.06;;;5.22;100.00
15308;BME280;7755;52.208;6.964;2024-03-07T19:02:29;101799.81;;;5.14;100.00
15308;BME280;7755;52.208;6.964;2024-03-07T19:07:12;101794.31;;;5.07;100.00
15308;BME280;7755;52.208;6.964;2024-03-07T19:11:50;101794.84;;;5.03;100.00
15308;BME280;7755;52.208;6.964;2024-03-07T19:16:28;101793.53;;;4.99;100.00
15308;BME280;7755;52.208;6.964;2024-03-07T19:21:13;101795.56;;;4.97;100.00
15308;BME280;7755;52.208;6.964;2024-03-07T19:25:54;101784.47;;;4.91;100.00
15308;BME280;7755;52.208;6.964;2024-03-07T19:30:38;101789.06;;;4.83;100.00
15308;BME280;7755;52.208;6.964;2024-03-07T19:35:18;101779.66;;;4.79;100.00
15308;BME280;7755;52.208;6.964;2024-03-07T19:39:56;101783.72;;;4.75;100.00
15308;BME280;7755;52.208;6.964;2024-03-07T19:44:40;101782.38;;;4.71;100.00
15308;BME280;7755;52.208;6.964;2024-03-07T19:49:18;101782.06;;;4.65;100.00
15308;BME280;7755;52.208;6.964;2024-03-07T19:53:56;101782.44;;;4.62;100.00
15308;BME280;7755;52.208;6.964;2024-03-07T19:58:32;101780.75;;;4.61;100.00
15308;BME280;7755;52.208;6.964;2024-03-07T20:03:07;101775.22;;;4.55;100.00
15308;BME280;7755;52.208;6.964;2024-03-07T20:07:48;101778.91;;;4.54;100.00
15308;BME280;7755;52.208;6.964;2024-03-07T20:12:27;101780.09;;;4.51;100.00
15308;BME280;7755;52.208;6.964;2024-03-07T20:17:07;101777.78;;;4.48;100.00
15308;BME280;7755;52.208;6.964;2024-03-07T20:21:48;101775.78;;;4.42;100.00
15308;BME280;7755;52.208;6.964;2024-03-07T20:26:28;101776.28;;;4.37;100.00
15308;BME280;7755;52.208;6.964;2024-03-07T20:31:06;101777.47;;;4.35;100.00
15308;BME280;7755;52.208;6.964;2024-03-07T20:35:44;101773.25;;;4.32;100.00
15308;BME280;7755;52.208;6.964;2024-03-07T20:40:25;101759.66;;;4.26;100.00
15308;BME280;7755;52.208;6.964;2024-03-07T20:44:56;101767.25;;;4.22;100.00
15308;BME280;7755;52.208;6.964;2024-03-07T20:49:36;101761.22;;;4.20;100.00
15308;BME280;7755;52.208;6.964;2024-03-07T20:54:14;101759.69;;;4.18;100.00
15308;BME280;7755;52.208;6.964;2024-03-07T20:58:55;101754.81;;;4.13;100.00
15308;BME280;7755;52.208;6.964;2024-03-07T21:03:35;101747.09;;;4.10;100.00
15308;BME280;7755;52.208;6.964;2024-03-07T21:08:14;101743.94;;;4.06;100.00
15308;BME280;7755;52.208;6.964;2024-03-07T21:12:52;101738.03;;;4.03;100.00
15308;BME280;7755;52.208;6.964;2024-03-07T21:17:33;101739.56;;;3.97;100.00
15308;BME280;7755;52.208;6.964;2024-03-07T21:22:14;101739.72;;;3.96;100.00
15308;BME280;7755;52.208;6.964;2024-03-07T21:26:52;101741.06;;;3.92;100.00
15308;BME280;7755;52.208;6.964;2024-03-07T21:31:31;101735.69;;;3.92;100.00
15308;BME280;7755;52.208;6.964;2024-03-07T21:36:12;101734.19;;;3.89;100.00
15308;BME280;7755;52.208;6.964;2024-03-07T21:40:50;101740.41;;;3.90;100.00
15308;BME280;7755;52.208;6.964;2024-03-07T21:45:28;101739.06;;;3.86;100.00
15308;BME280;7755;52.208;6.964;2024-03-07T21:50:07;101733.03;;;3.83;100.00
15308;BME280;7755;52.208;6.964;2024-03-07T21:54:49;101729.50;;;3.83;100.00
15308;BME280;7755;52.208;6.964;2024-03-07T21:59:28;101727.00;;;3.81;100.00
15308;BME280;7755;52.208;6.964;2024-03-07T22:04:08;101720.25;;;3.77;100.00
15308;BME280;7755;52.208;6.964;2024-03-07T22:08:46;101715.91;;;3.76;100.00
15308;BME280;7755;52.208;6.964;2024-03-07T22:13:28;101712.56;;;3.74;100.00
15308;BME280;7755;52.208;6.964;2024-03-07T22:18:06;101706.47;;;3.72;100.00
15308;BME280;7755;52.208;6.964;2024-03-07T22:22:45;101700.81;;;3.67;100.00
15308;BME280;7755;52.208;6.964;2024-03-07T22:27:24;101691.75;;;3.60;100.00
15308;BME280;7755;52.208;6.964;2024-03-07T22:32:05;101689.91;;;3.52;100.00
15308;BME280;7755;52.208;6.964;2024-03-07T22:36:43;101691.41;;;3.47;100.00
15308;BME280;7755;52.208;6.964;2024-03-07T22:41:21;101680.31;;;3.42;100.00
15308;BME280;7755;52.208;6.964;2024-03-07T22:45:53;101674.44;;;3.38;100.00
15308;BME280;7755;52.208;6.964;2024-03-07T22:50:35;101665.72;;;3.36;100.00
15308;BME280;7755;52.208;6.964;2024-03-07T22:55:14;101665.03;;;3.34;100.00
15308;BME280;7755;52.208;6.964;2024-03-07T22:59:52;101664.38;;;3.32;100.00
15308;BME280;7755;52.208;6.964;2024-03-07T23:04:30;101660.16;;;3.29;100.00
15308;BME280;7755;52.208;6.964;2024-03-07T23:09:11;101657.31;;;3.23;100.00
15308;BME280;7755;52.208;6.964;2024-03-07T23:13:52;101653.44;;;3.17;100.00
15308;BME280;7755;52.208;6.964;2024-03-07T23:18:32;101656.31;;;3.08;100.00
15308;BME280;7755;52.208;6.964;2024-03-07T23:23:11;101645.59;;;2.99;100.00
15308;BME280;7755;52.208;6.964;2024-03-07T23:27:51;101632.66;;;2.95;100.00
15308;BME280;7755;52.208;6.964;2024-03-07T23:32:30;101639.22;;;2.92;100.00
15308;BME280;7755;52.208;6.964;2024-03-07T23:37:03;101638.19;;;2.85;100.00
15308;BME280;7755;52.208;6.964;2024-03-07T23:41:43;101640.53;;;2.80;100.00
15308;BME280;7755;52.208;6.964;2024-03-07T23:46:24;101633.50;;;2.71;100.00
15308;BME280;7755;52.208;6.964;2024-03-07T23:51:04;101626.94;;;2.65;100.00
15308;BME280;7755;52.208;6.964;2024-03-07T23:55:42;101625.56;;;2.61;100.00
